createdAt,value
2023-04-02T00:00:12.290Z,9.91
2023-04-02T00:03:09.215Z,9.96
2023-04-02T00:05:52.747Z,10.04
2023-04-02T00:08:26.666Z,10.10
2023-04-02T00:11:02.229Z,10.14
2023-04-02T00:13:33.187Z,10.17
2023-04-02T00:16:03.670Z,10.19
2023-04-02T00:18:34.495Z,10.19
2023-04-02T00:21:29.368Z,10.17
2023-04-02T00:24:01.480Z,10.16
2023-04-02T00:26:43.266Z,10.18
2023-04-02T00:29:13.796Z,10.13
2023-04-02T00:31:45.845Z,10.09
2023-04-02T00:34:37.127Z,10.06
2023-04-02T00:37:06.161Z,10.05
2023-04-02T00:39:43.448Z,10.00
2023-04-02T00:42:13.483Z,9.99
2023-04-02T00:44:45.630Z,9.97
2023-04-02T00:47:33.921Z,9.95
2023-04-02T00:50:19.024Z,9.92
2023-04-02T00:52:51.214Z,9.89
2023-04-02T00:55:27.796Z,9.85
2023-04-02T00:58:00.568Z,9.83
2023-04-02T01:00:36.493Z,9.78
2023-04-02T01:03:17.290Z,9.72
2023-04-02T01:05:50.599Z,9.66
2023-04-02T01:08:31.857Z,9.63
2023-04-02T01:11:21.783Z,9.61
2023-04-02T01:14:05.519Z,9.58
2023-04-02T01:16:54.345Z,9.55
2023-04-02T01:20:01.125Z,9.54
2023-04-02T01:22:48.348Z,9.54
2023-04-02T01:25:24.533Z,9.48
2023-04-02T01:28:05.287Z,9.50
2023-04-02T01:30:36.976Z,9.47
2023-04-02T01:33:07.347Z,9.47
2023-04-02T01:35:43.559Z,9.50
2023-04-02T01:38:19.439Z,9.50
2023-04-02T01:41:02.383Z,9.52
2023-04-02T01:43:49.820Z,9.53
2023-04-02T01:46:32.341Z,9.52
2023-04-02T01:49:04.993Z,9.50
2023-04-02T01:51:35.347Z,9.52
2023-04-02T01:54:08.105Z,9.51
2023-04-02T01:56:37.033Z,9.56
2023-04-02T01:59:07.122Z,9.60
2023-04-02T02:01:48.839Z,9.63
2023-04-02T02:04:19.758Z,9.58
2023-04-02T02:06:48.526Z,9.55
2023-04-02T02:09:24.042Z,9.51
2023-04-02T02:11:52.777Z,9.47
2023-04-02T02:14:27.421Z,9.42
2023-04-02T02:17:00.408Z,9.39
2023-04-02T02:19:55.251Z,9.36
2023-04-02T02:22:39.367Z,9.31
2023-04-02T02:25:17.445Z,9.29
2023-04-02T02:27:50.009Z,9.27
2023-04-02T02:30:31.709Z,9.25
2023-04-02T02:33:14.631Z,9.25
2023-04-02T02:35:52.531Z,9.22
2023-04-02T02:38:35.564Z,9.22
2023-04-02T02:41:18.157Z,9.27
2023-04-02T02:44:02.341Z,9.26
2023-04-02T02:46:34.201Z,9.26
2023-04-02T02:49:05.206Z,9.28
2023-04-02T02:51:46.512Z,9.25
2023-04-02T02:54:19.994Z,9.25
2023-04-02T02:56:57.150Z,9.24
2023-04-02T02:59:28.825Z,9.22
2023-04-02T03:01:58.430Z,9.26
2023-04-02T03:04:30.811Z,9.26
2023-04-02T03:07:00.031Z,9.24
2023-04-02T03:09:39.635Z,9.22
2023-04-02T03:12:44.324Z,9.20
2023-04-02T03:15:39.029Z,9.20
2023-04-02T03:18:16.658Z,9.19
2023-04-02T03:20:57.544Z,9.15
2023-04-02T03:23:36.060Z,9.14
2023-04-02T03:26:32.907Z,9.14
2023-04-02T03:29:29.947Z,9.17
2023-04-02T03:32:17.371Z,9.19
2023-04-02T03:35:02.058Z,9.19
2023-04-02T03:37:42.698Z,9.13
2023-04-02T03:40:21.252Z,9.14
2023-04-02T03:42:56.968Z,9.17
2023-04-02T03:45:32.779Z,9.21
2023-04-02T03:48:07.449Z,9.20
2023-04-02T03:50:41.151Z,9.19
2023-04-02T03:53:09.956Z,9.19
2023-04-02T03:55:42.924Z,9.22
2023-04-02T03:58:17.452Z,9.21
2023-04-02T04:01:01.990Z,9.24
2023-04-02T04:03:39.869Z,9.24
2023-04-02T04:06:21.500Z,9.17
2023-04-02T04:08:55.501Z,9.18
2023-04-02T04:11:31.173Z,9.15
2023-04-02T04:14:10.595Z,9.13
2023-04-02T04:16:47.695Z,9.11
2023-04-02T04:19:40.111Z,9.11
2023-04-02T04:22:30.694Z,9.11
2023-04-02T04:25:18.342Z,9.15
2023-04-02T04:28:08.059Z,9.10
2023-04-02T04:30:52.572Z,9.08
2023-04-02T04:33:34.779Z,9.09
2023-04-02T04:36:14.965Z,9.05
2023-04-02T04:38:55.527Z,9.10
2023-04-02T04:41:30.235Z,9.05
2023-04-02T04:44:10.793Z,9.09
2023-04-02T04:46:48.160Z,9.08
2023-04-02T04:49:36.229Z,9.08
2023-04-02T04:52:22.439Z,9.12
2023-04-02T04:54:53.457Z,9.18
2023-04-02T04:57:42.427Z,9.25
2023-04-02T05:00:23.199Z,9.25
2023-04-02T05:03:14.348Z,9.23
2023-04-02T05:05:45.136Z,9.23
2023-04-02T05:08:27.346Z,9.26
2023-04-02T05:11:01.475Z,9.32
2023-04-02T05:13:36.481Z,9.29
2023-04-02T05:16:44.836Z,9.27
2023-04-02T05:19:17.071Z,9.23
2023-04-02T05:21:57.573Z,9.25
2023-04-02T05:24:54.698Z,9.27
2023-04-02T05:27:31.982Z,9.25
2023-04-02T05:30:13.460Z,9.23
2023-04-02T05:32:48.960Z,9.16
2023-04-02T05:35:21.341Z,9.16
2023-04-02T05:37:50.782Z,9.17
2023-04-02T05:40:31.341Z,9.13
2023-04-02T05:43:08.254Z,9.12
2023-04-02T05:45:44.526Z,9.12
2023-04-02T05:48:35.601Z,9.13
2023-04-02T05:51:08.781Z,9.12
2023-04-02T05:53:46.083Z,9.13
2023-04-02T05:56:26.656Z,9.14
2023-04-02T05:59:03.416Z,9.14
2023-04-02T06:01:49.938Z,9.13
2023-04-02T06:04:45.122Z,9.14
2023-04-02T06:07:29.829Z,9.07
2023-04-02T06:10:10.426Z,9.07
2023-04-02T06:12:55.865Z,9.04
2023-04-02T06:15:25.236Z,9.01
2023-04-02T06:18:08.666Z,8.98
2023-04-02T06:20:39.307Z,8.99
2023-04-02T06:23:14.286Z,9.02
2023-04-02T06:26:26.547Z,9.00
2023-04-02T06:29:14.486Z,8.97
2023-04-02T06:31:49.723Z,9.02
2023-04-02T06:34:22.627Z,9.03
2023-04-02T06:37:03.057Z,9.02
2023-04-02T06:39:32.807Z,9.04
2023-04-02T06:42:11.427Z,9.05
2023-04-02T06:44:58.605Z,9.08
2023-04-02T06:47:54.157Z,9.13
2023-04-02T06:50:53.683Z,9.12
2023-04-02T06:53:28.217Z,9.16
2023-04-02T06:56:03.213Z,9.17
2023-04-02T06:58:33.285Z,9.17
2023-04-02T07:01:02.319Z,9.19
2023-04-02T07:03:44.198Z,9.15
2023-04-02T07:06:45.321Z,9.16
2023-04-02T07:09:16.486Z,9.18
2023-04-02T07:11:49.062Z,9.16
2023-04-02T07:14:18.872Z,9.16
2023-04-02T07:16:48.180Z,9.15
2023-04-02T07:19:23.031Z,9.14
2023-04-02T07:21:55.590Z,9.12
2023-04-02T07:24:26.006Z,9.16
2023-04-02T07:26:54.908Z,9.11
2023-04-02T07:29:23.687Z,9.11
2023-04-02T07:31:54.221Z,9.15
2023-04-02T07:34:22.694Z,9.17
2023-04-02T07:36:51.907Z,9.18
2023-04-02T07:39:20.433Z,9.15
2023-04-02T07:41:57.864Z,9.20
2023-04-02T07:44:27.773Z,9.24
2023-04-02T07:46:56.511Z,9.22
2023-04-02T07:49:25.495Z,9.22
2023-04-02T07:51:54.145Z,9.23
2023-04-02T07:54:22.831Z,9.28
2023-04-02T07:56:52.067Z,9.32
2023-04-02T07:59:20.824Z,9.34
2023-04-02T08:01:49.211Z,9.35
2023-04-02T08:04:20.797Z,9.39
2023-04-02T08:06:50.863Z,9.43
2023-04-02T08:09:19.764Z,9.43
2023-04-02T08:11:48.665Z,9.52
2023-04-02T08:14:17.154Z,9.54
2023-04-02T08:16:49.155Z,9.57
2023-04-02T08:19:18.348Z,9.57
2023-04-02T08:21:51.027Z,9.60
2023-04-02T08:24:21.632Z,9.62
2023-04-02T08:26:54.692Z,9.66
2023-04-02T08:29:24.233Z,9.70
2023-04-02T08:31:52.888Z,9.77
2023-04-02T08:34:21.777Z,9.76
2023-04-02T08:36:56.607Z,9.82
2023-04-02T08:39:29.484Z,9.88
2023-04-02T08:42:22.140Z,9.88
2023-04-02T08:45:21.296Z,9.95
2023-04-02T08:47:56.716Z,9.99
2023-04-02T08:50:33.125Z,10.00
2023-04-02T08:53:05.359Z,10.06
2023-04-02T08:55:43.276Z,10.12
2023-04-02T08:58:29.716Z,10.16
2023-04-02T09:01:02.574Z,10.17
2023-04-02T09:03:37.540Z,10.22
2023-04-02T09:06:14.279Z,10.26
2023-04-02T09:08:47.519Z,10.36
2023-04-02T09:11:42.655Z,10.40
2023-04-02T09:14:19.796Z,10.45
2023-04-02T09:16:53.591Z,10.55
2023-04-02T09:19:31.700Z,10.60
2023-04-02T09:22:02.700Z,10.64
2023-04-02T09:24:33.606Z,10.66
2023-04-02T09:27:03.012Z,10.69
2023-04-02T09:29:45.397Z,10.76
2023-04-02T09:32:35.512Z,10.74
2023-04-02T09:35:24.766Z,10.79
2023-04-02T09:38:10.653Z,10.81
2023-04-02T09:41:07.707Z,10.80
2023-04-02T09:43:38.523Z,10.86
2023-04-02T09:46:19.046Z,10.86
2023-04-02T09:48:55.275Z,10.88
2023-04-02T09:51:26.595Z,10.87
2023-04-02T09:54:04.539Z,10.96
2023-04-02T09:56:38.980Z,10.94
2023-04-02T09:59:18.669Z,11.02
2023-04-02T10:01:58.754Z,11.13
2023-04-02T10:04:45.453Z,11.07
2023-04-02T10:07:35.802Z,11.08
2023-04-02T10:10:35.663Z,11.15
2023-04-02T10:13:22.316Z,11.20
2023-04-02T10:16:05.279Z,11.19
2023-04-02T10:19:00.241Z,11.22
2023-04-02T10:21:40.310Z,11.37
2023-04-02T10:24:19.034Z,11.47
2023-04-02T10:26:58.893Z,11.47
2023-04-02T10:29:44.156Z,11.61
2023-04-02T10:32:19.088Z,11.64
2023-04-02T10:35:23.003Z,11.74
2023-04-02T10:38:02.348Z,11.74
2023-04-02T10:40:59.795Z,11.75
2023-04-02T10:43:31.159Z,11.89
2023-04-02T10:46:13.880Z,12.06
2023-04-02T10:49:10.739Z,12.22
2023-04-02T10:51:47.100Z,12.28
2023-04-02T10:54:41.765Z,12.38
2023-04-02T10:57:10.927Z,12.63
2023-04-02T10:59:45.087Z,12.60
2023-04-02T11:02:51.655Z,12.78
2023-04-02T11:05:25.976Z,12.73
2023-04-02T11:08:04.613Z,12.73
2023-04-02T11:10:40.544Z,12.84
2023-04-02T11:13:15.279Z,12.89
2023-04-02T11:15:44.995Z,12.91
2023-04-02T11:18:29.559Z,12.95
2023-04-02T11:21:01.071Z,13.01
2023-04-02T11:23:36.427Z,13.20
2023-04-02T11:26:37.576Z,13.20
2023-04-02T11:29:28.602Z,13.27
2023-04-02T11:32:21.529Z,13.37
2023-04-02T11:34:59.894Z,13.39
2023-04-02T11:37:45.491Z,13.40
2023-04-02T11:40:14.436Z,13.40
2023-04-02T11:42:53.474Z,13.42
2023-04-02T11:45:29.043Z,13.37
2023-04-02T11:48:08.534Z,13.32
2023-04-02T11:50:38.676Z,13.27
2023-04-02T11:53:13.904Z,13.23
2023-04-02T11:55:45.916Z,13.07
2023-04-02T11:58:34.338Z,12.96
2023-04-02T12:01:16.388Z,12.97
2023-04-02T12:03:47.989Z,12.97
2023-04-02T12:06:28.426Z,12.94
2023-04-02T12:09:25.298Z,12.82
2023-04-02T12:12:26.324Z,12.70
2023-04-02T12:14:57.903Z,12.66
2023-04-02T12:17:38.268Z,12.57
2023-04-02T12:20:09.156Z,12.46
2023-04-02T12:22:49.628Z,12.40
2023-04-02T12:25:40.516Z,12.32
2023-04-02T12:28:20.007Z,12.24
2023-04-02T12:30:51.505Z,12.22
2023-04-02T12:33:20.387Z,12.26
2023-04-02T12:36:01.899Z,12.28
2023-04-02T12:38:34.275Z,12.19
2023-04-02T12:41:21.872Z,12.11
2023-04-02T12:44:02.022Z,12.03
2023-04-02T12:46:33.320Z,12.03
2023-04-02T12:49:23.824Z,12.02
2023-04-02T12:51:53.423Z,12.05
2023-04-02T12:54:22.920Z,12.08
2023-04-02T12:56:55.176Z,12.16
2023-04-02T12:59:29.711Z,12.07
2023-04-02T13:02:02.770Z,12.02
2023-04-02T13:04:46.639Z,12.03
2023-04-02T13:07:18.812Z,12.00
2023-04-02T13:09:53.696Z,11.97
2023-04-02T13:12:27.139Z,12.06
2023-04-02T13:14:57.867Z,12.05
2023-04-02T13:17:48.939Z,12.05
2023-04-02T13:20:40.070Z,11.97
2023-04-02T13:23:27.348Z,11.95
2023-04-02T13:26:16.576Z,11.97
2023-04-02T13:29:01.587Z,11.99
2023-04-02T13:31:32.873Z,11.96
2023-04-02T13:34:01.992Z,11.97
2023-04-02T13:36:32.359Z,11.93
2023-04-02T13:39:01.442Z,11.84
2023-04-02T13:41:34.101Z,11.73
2023-04-02T13:44:03.703Z,11.54
2023-04-02T13:46:35.044Z,11.39
2023-04-02T13:49:03.531Z,11.25
2023-04-02T13:51:59.083Z,11.16
2023-04-02T13:54:43.918Z,11.11
2023-04-02T13:57:12.757Z,11.11
2023-04-02T13:59:42.399Z,11.11
2023-04-02T14:02:20.843Z,11.09
2023-04-02T14:04:58.105Z,11.06
2023-04-02T14:07:37.450Z,11.03
2023-04-02T14:10:32.444Z,10.94
2023-04-02T14:13:07.181Z,10.88
2023-04-02T14:16:28.132Z,10.85
2023-04-02T14:19:04.344Z,10.78
2023-04-02T14:21:35.899Z,10.76
2023-04-02T14:24:18.333Z,10.74
2023-04-02T14:26:58.257Z,10.70
2023-04-02T14:29:44.860Z,10.71
2023-04-02T14:32:55.169Z,10.71
2023-04-02T14:35:31.827Z,10.68
2023-04-02T14:38:09.086Z,10.68
2023-04-02T14:40:50.375Z,10.66
2023-04-02T14:43:38.709Z,10.66
2023-04-02T14:46:10.620Z,10.65
2023-04-02T14:48:52.891Z,10.66
2023-04-02T14:51:37.522Z,10.67
2023-04-02T14:54:40.291Z,10.66
2023-04-02T14:57:21.808Z,10.66
2023-04-02T15:00:13.652Z,10.66
2023-04-02T15:03:04.616Z,10.65
2023-04-02T15:05:46.658Z,10.67
2023-04-02T15:08:15.126Z,10.69
2023-04-02T15:10:52.730Z,10.73
2023-04-02T15:13:27.435Z,10.74
2023-04-02T15:16:21.658Z,10.75
2023-04-02T15:18:53.914Z,10.74
2023-04-02T15:21:49.786Z,10.74
2023-04-02T15:25:03.914Z,10.74
2023-04-02T15:27:39.821Z,10.76
2023-04-02T15:30:22.296Z,10.75
2023-04-02T15:32:52.726Z,10.73
2023-04-02T15:35:39.974Z,10.72
2023-04-02T15:38:24.542Z,10.70
2023-04-02T15:41:14.748Z,10.66
2023-04-02T15:44:10.269Z,10.62
2023-04-02T15:46:57.597Z,10.59
2023-04-02T15:49:54.316Z,10.56
2023-04-02T15:52:40.516Z,10.51
2023-04-02T15:55:21.170Z,10.50
2023-04-02T15:58:17.440Z,10.46
2023-04-02T16:00:49.396Z,10.43
2023-04-02T16:03:21.170Z,10.42
2023-04-02T16:06:17.298Z,10.40
2023-04-02T16:09:18.411Z,10.37
2023-04-02T16:11:46.889Z,10.34
2023-04-02T16:14:15.792Z,10.32
2023-04-02T16:16:48.311Z,10.31
2023-04-02T16:19:41.815Z,10.31
2023-04-02T16:22:27.851Z,10.29
2023-04-02T16:25:14.313Z,10.28
2023-04-02T16:27:46.233Z,10.28
2023-04-02T16:30:26.949Z,10.26
2023-04-02T16:32:58.363Z,10.26
2023-04-02T16:35:43.767Z,10.25
2023-04-02T16:38:20.952Z,10.25
2023-04-02T16:41:09.113Z,10.24
2023-04-02T16:44:10.472Z,10.23
2023-04-02T16:47:03.189Z,10.22
2023-04-02T16:49:47.960Z,10.18
2023-04-02T16:52:43.545Z,10.18
2023-04-02T16:55:39.302Z,10.19
2023-04-02T16:58:33.893Z,10.19
2023-04-02T17:01:08.931Z,10.24
2023-04-02T17:03:37.391Z,10.25
2023-04-02T17:06:15.829Z,10.28
2023-04-02T17:08:50.952Z,10.29
2023-04-02T17:11:32.900Z,10.31
2023-04-02T17:14:13.032Z,10.34
2023-04-02T17:16:50.825Z,10.35
2023-04-02T17:19:21.074Z,10.38
2023-04-02T17:21:53.533Z,10.36
2023-04-02T17:24:44.821Z,10.37
2023-04-02T17:27:37.199Z,10.30
2023-04-02T17:30:31.776Z,10.28
2023-04-02T17:33:00.506Z,10.25
2023-04-02T17:36:00.506Z,10.25
2023-04-02T17:38:54.254Z,10.26
2023-04-02T17:41:49.072Z,10.31
2023-04-02T17:44:33.802Z,10.32
2023-04-02T17:47:33.764Z,10.31
2023-04-02T17:50:17.760Z,10.30
2023-04-02T17:52:57.608Z,10.29
2023-04-02T17:55:58.141Z,10.30
2023-04-02T17:58:41.949Z,10.29
2023-04-02T18:01:20.262Z,10.31
2023-04-02T18:04:10.984Z,10.23
2023-04-02T18:06:44.608Z,10.29
2023-04-02T18:09:13.175Z,10.22
2023-04-02T18:12:08.973Z,10.15
2023-04-02T18:15:04.405Z,9.98
2023-04-02T18:18:03.848Z,10.01
2023-04-02T18:20:36.923Z,10.05
2023-04-02T18:23:12.655Z,10.09
2023-04-02T20:53:41.206Z,9.05
2023-04-02T20:56:12.991Z,8.97
2023-04-02T20:58:42.899Z,8.86
2023-04-02T21:01:20.003Z,8.85
2023-04-02T21:03:49.987Z,8.81
2023-04-02T21:06:21.569Z,8.75
2023-04-02T21:08:51.068Z,8.71
2023-04-02T21:11:20.238Z,8.72
2023-04-02T21:13:49.957Z,8.68
2023-04-02T21:16:30.044Z,8.73
2023-04-02T21:19:02.467Z,8.68
2023-04-02T21:21:31.386Z,8.66
2023-04-02T21:24:02.241Z,8.67
2023-04-02T21:26:34.803Z,8.63
2023-04-02T21:32:41.614Z,8.65
2023-04-02T21:35:10.159Z,8.60
2023-04-02T21:37:38.749Z,8.57
2023-04-02T21:40:08.647Z,8.58
2023-04-02T21:42:37.241Z,8.53
2023-04-02T21:45:06.731Z,8.54
2023-04-02T21:47:35.252Z,8.53
2023-04-02T21:50:04.680Z,8.44
2023-04-02T21:52:33.203Z,8.47
2023-04-02T21:55:01.888Z,8.45
2023-04-02T21:57:32.432Z,8.38
2023-04-02T22:00:01.423Z,8.41
2023-04-02T22:02:31.580Z,8.43
2023-04-02T22:05:00.181Z,8.31
2023-04-02T22:07:29.037Z,8.31
2023-04-02T22:09:59.220Z,8.33
2023-04-02T22:12:28.033Z,8.29
2023-04-02T22:14:56.732Z,8.26
2023-04-02T22:17:25.641Z,8.28
2023-04-02T22:19:54.273Z,8.22
2023-04-02T22:22:22.964Z,8.19
2023-04-02T22:24:51.646Z,8.23
2023-04-02T22:27:20.358Z,8.18
2023-04-02T22:29:49.058Z,8.15
2023-04-02T22:32:17.905Z,8.17
2023-04-02T22:34:46.701Z,8.14
2023-04-02T22:37:15.170Z,8.12
2023-04-02T22:39:43.841Z,8.12
2023-04-02T22:42:12.246Z,8.08
2023-04-02T22:44:40.824Z,8.10
2023-04-02T22:47:09.325Z,8.06
2023-04-02T22:49:38.457Z,8.03
2023-04-02T22:52:07.193Z,8.06
2023-04-02T22:54:35.582Z,8.02
2023-04-02T22:57:04.385Z,8.03
2023-04-02T22:59:33.042Z,8.00
2023-04-02T23:02:01.831Z,7.94
2023-04-02T23:04:30.408Z,7.96
2023-04-02T23:06:58.892Z,7.93
2023-04-02T23:09:27.482Z,7.92
2023-04-02T23:11:55.853Z,7.90
2023-04-02T23:14:24.332Z,7.88
2023-04-02T23:16:53.027Z,7.90
2023-04-02T23:19:21.402Z,7.86
2023-04-02T23:21:50.032Z,7.88
2023-04-02T23:24:18.560Z,7.88
2023-04-02T23:26:47.986Z,7.82
2023-04-02T23:29:17.885Z,7.86
2023-04-02T23:31:46.281Z,7.90
2023-04-02T23:34:15.067Z,7.93
2023-04-02T23:36:43.431Z,7.88
2023-04-02T23:39:13.547Z,7.84
2023-04-02T23:41:43.260Z,7.85
2023-04-02T23:44:12.142Z,7.86
2023-04-02T23:46:40.554Z,7.89
2023-04-02T23:49:12.784Z,7.87
2023-04-02T23:51:41.803Z,7.85
2023-04-02T23:54:12.426Z,7.83
2023-04-02T23:56:42.215Z,7.88
2023-04-02T23:59:10.817Z,7.86
